createdAt,value
2022-12-19T00:01:33.873Z,107.77
2022-12-19T00:04:08.372Z,116.30
2022-12-19T00:06:37.045Z,108.63
2022-12-19T00:09:04.080Z,116.50
2022-12-19T00:11:31.510Z,106.30
2022-12-19T00:13:59.057Z,109.73
2022-12-19T00:16:28.127Z,122.20
2022-12-19T00:18:56.881Z,120.20
2022-12-19T00:21:26.028Z,116.97
2022-12-19T00:23:53.107Z,115.57
2022-12-19T00:26:25.528Z,106.97
2022-12-19T00:28:54.699Z,111.80
2022-12-19T00:31:24.349Z,115.13
2022-12-19T00:33:51.208Z,118.67
2022-12-19T00:36:23.789Z,112.20
2022-12-19T00:38:52.408Z,114.77
2022-12-19T00:41:22.168Z,111.87
2022-12-19T00:44:00.294Z,120.13
2022-12-19T00:46:27.906Z,120.50
2022-12-19T00:48:55.401Z,126.33
2022-12-19T00:51:24.608Z,119.57
2022-12-19T00:53:53.292Z,120.20
2022-12-19T00:56:29.882Z,128.87
2022-12-19T00:58:57.309Z,121.23
2022-12-19T01:01:27.970Z,125.33
2022-12-19T01:06:42.376Z,115.83
2022-12-19T01:09:11.152Z,118.77
2022-12-19T01:11:56.260Z,115.50
2022-12-19T01:14:23.666Z,122.73
2022-12-19T01:16:51.373Z,125.57
2022-12-19T01:19:18.128Z,120.27
2022-12-19T01:21:45.089Z,120.13
2022-12-19T01:24:12.404Z,118.00
2022-12-19T01:26:40.491Z,124.60
2022-12-19T01:29:07.214Z,114.77
2022-12-19T01:31:34.161Z,119.40
2022-12-19T01:34:01.495Z,116.87
2022-12-19T01:36:28.496Z,118.30
2022-12-19T01:38:57.800Z,113.93
2022-12-19T01:41:24.627Z,123.60
2022-12-19T01:44:00.916Z,119.53
2022-12-19T01:46:34.014Z,119.43
2022-12-19T01:49:02.626Z,116.30
2022-12-19T01:51:37.396Z,128.90
2022-12-19T01:54:07.796Z,117.50
2022-12-19T01:56:42.583Z,119.20
2022-12-19T01:59:16.737Z,114.73
2022-12-19T02:01:51.766Z,119.70
2022-12-19T02:04:20.343Z,109.63
2022-12-19T02:06:48.410Z,115.40
2022-12-19T02:09:15.982Z,120.83
2022-12-19T02:11:42.568Z,116.97
2022-12-19T02:14:09.369Z,111.77
2022-12-19T02:16:57.363Z,107.93
2022-12-19T02:19:48.442Z,118.20
2022-12-19T02:22:40.977Z,107.03
2022-12-19T02:25:19.418Z,108.53
2022-12-19T02:28:06.722Z,109.70
2022-12-19T02:31:13.801Z,106.33
2022-12-19T02:34:05.919Z,98.27
2022-12-19T02:36:43.423Z,113.23
2022-12-19T02:39:18.599Z,103.97
2022-12-19T02:41:52.833Z,103.63
2022-12-19T02:44:26.117Z,109.67
2022-12-19T02:46:53.447Z,113.50
2022-12-19T02:49:24.908Z,105.70
2022-12-19T02:51:57.515Z,105.60
2022-12-19T02:54:24.827Z,112.87
2022-12-19T02:57:05.181Z,107.83
2022-12-19T03:00:03.541Z,104.87
2022-12-19T03:02:53.846Z,102.40
2022-12-19T03:05:31.595Z,103.20
2022-12-19T03:07:58.139Z,114.70
2022-12-19T03:10:36.777Z,105.30
2022-12-19T03:13:12.119Z,110.17
2022-12-19T03:15:41.638Z,107.53
2022-12-19T03:18:08.580Z,107.23
2022-12-19T03:20:44.868Z,105.30
2022-12-19T03:23:12.941Z,108.60
2022-12-19T03:25:42.868Z,105.43
2022-12-19T03:28:14.120Z,118.90
2022-12-19T03:30:44.508Z,117.67
2022-12-19T03:33:13.729Z,112.20
2022-12-19T03:35:41.568Z,120.60
2022-12-19T03:38:12.244Z,125.73
2022-12-19T03:40:40.978Z,124.03
2022-12-19T03:43:10.758Z,123.03
2022-12-19T03:45:44.048Z,125.80
2022-12-19T03:48:17.637Z,112.50
2022-12-19T03:50:48.543Z,132.83
2022-12-19T03:53:35.405Z,126.23
2022-12-19T03:56:23.284Z,124.77
2022-12-19T03:58:59.196Z,122.47
2022-12-19T04:01:27.970Z,132.63
2022-12-19T04:03:58.166Z,118.73
2022-12-19T04:06:28.394Z,131.67
2022-12-19T04:08:57.055Z,125.97
2022-12-19T04:11:30.588Z,121.53
2022-12-19T04:14:08.505Z,127.67
2022-12-19T04:16:45.933Z,120.67
2022-12-19T04:19:20.895Z,140.27
2022-12-19T04:21:56.493Z,170.10
2022-12-19T04:24:29.101Z,176.77
2022-12-19T04:26:57.512Z,182.97
2022-12-19T04:29:26.800Z,159.67
2022-12-19T04:31:53.763Z,184.70
2022-12-19T04:34:21.279Z,182.70
2022-12-19T04:36:50.376Z,196.20
2022-12-19T04:39:17.085Z,272.03
2022-12-19T04:41:43.666Z,285.87
2022-12-19T04:44:10.269Z,283.93
2022-12-19T04:46:36.805Z,355.43
2022-12-19T04:49:03.528Z,399.77
2022-12-19T04:51:30.527Z,277.30
2022-12-19T04:53:57.501Z,323.77
2022-12-19T04:56:24.348Z,458.17
2022-12-19T04:58:56.606Z,279.60
2022-12-19T05:01:23.213Z,337.73
2022-12-19T05:03:54.315Z,348.27
2022-12-19T05:06:22.901Z,329.07
2022-12-19T05:08:49.437Z,359.93
2022-12-19T05:11:19.750Z,305.60
2022-12-19T05:13:47.294Z,375.30
2022-12-19T05:16:15.861Z,314.87
2022-12-19T05:18:42.907Z,273.37
2022-12-19T05:21:09.802Z,307.63
2022-12-19T05:23:36.661Z,332.93
2022-12-19T05:26:04.852Z,415.67
2022-12-19T05:28:32.858Z,311.43
2022-12-19T05:31:04.506Z,378.20
2022-12-19T05:33:31.215Z,359.43
2022-12-19T05:35:57.918Z,458.70
2022-12-19T05:38:25.484Z,429.20
2022-12-19T05:40:52.148Z,308.57
2022-12-19T05:43:18.713Z,317.17
2022-12-19T05:45:45.287Z,207.57
2022-12-19T05:48:11.946Z,267.30
2022-12-19T05:50:38.553Z,207.33
2022-12-19T05:53:05.412Z,162.30
2022-12-19T05:55:32.192Z,143.70
2022-12-19T05:57:58.825Z,135.27
2022-12-19T06:00:25.897Z,132.57
2022-12-19T06:02:52.662Z,130.73
2022-12-19T06:05:19.458Z,116.43
2022-12-19T06:07:46.599Z,120.53
2022-12-19T06:10:13.222Z,105.50
2022-12-19T06:12:40.033Z,97.10
2022-12-19T06:15:07.212Z,109.40
2022-12-19T06:17:34.454Z,101.53
2022-12-19T06:20:01.027Z,102.87
2022-12-19T06:22:27.708Z,106.97
2022-12-19T06:24:54.225Z,103.57
2022-12-19T06:27:20.771Z,98.07
2022-12-19T06:29:47.368Z,97.20
2022-12-19T06:32:13.884Z,105.57
2022-12-19T06:35:03.370Z,97.40
2022-12-19T06:37:27.135Z,98.13
2022-12-19T06:39:53.662Z,91.17
2022-12-19T06:42:22.938Z,83.33
2022-12-19T06:44:54.378Z,85.93
2022-12-19T06:47:23.635Z,91.27
2022-12-19T06:49:50.327Z,79.97
2022-12-19T06:52:17.534Z,73.30
2022-12-19T06:54:44.100Z,80.37
2022-12-19T06:57:10.755Z,104.10
2022-12-19T06:59:37.335Z,112.23
2022-12-19T07:02:21.755Z,88.83
2022-12-19T07:04:52.608Z,80.57
2022-12-19T07:07:19.566Z,85.30
2022-12-19T07:09:46.188Z,80.27
2022-12-19T07:12:12.808Z,79.97
2022-12-19T07:14:39.328Z,85.23
2022-12-19T07:17:06.606Z,71.20
2022-12-19T07:19:34.529Z,72.87
2022-12-19T07:22:03.804Z,73.50
2022-12-19T07:24:30.937Z,68.90
2022-12-19T07:26:58.179Z,65.17
2022-12-19T07:29:25.534Z,67.23
2022-12-19T07:31:52.493Z,66.20
2022-12-19T07:34:19.179Z,62.07
2022-12-19T07:36:45.815Z,62.40
2022-12-19T07:39:12.529Z,64.40
2022-12-19T07:41:40.096Z,65.27
2022-12-19T07:44:07.263Z,64.77
2022-12-19T07:46:33.812Z,68.27
2022-12-19T07:49:01.084Z,64.33
2022-12-19T07:51:28.468Z,66.97
2022-12-19T07:53:55.018Z,66.97
2022-12-19T07:56:21.938Z,60.43
2022-12-19T07:58:48.494Z,64.40
2022-12-19T08:01:15.188Z,55.07
2022-12-19T08:03:41.811Z,64.80
2022-12-19T08:06:08.725Z,54.73
2022-12-19T08:08:37.634Z,54.73
2022-12-19T08:11:13.354Z,49.37
2022-12-19T08:13:46.434Z,56.70
2022-12-19T08:16:13.790Z,56.87
2022-12-19T08:18:40.625Z,62.33
2022-12-19T08:21:09.023Z,55.77
2022-12-19T08:23:35.572Z,53.87
2022-12-19T08:26:05.132Z,50.40
2022-12-19T08:28:33.539Z,40.47
2022-12-19T08:31:09.366Z,49.80
2022-12-19T08:33:36.872Z,56.20
2022-12-19T08:36:08.162Z,53.27
2022-12-19T08:38:35.788Z,56.50
2022-12-19T08:41:02.963Z,59.67
2022-12-19T08:43:30.622Z,59.20
2022-12-19T08:45:57.900Z,62.20
2022-12-19T08:48:24.957Z,64.73
2022-12-19T08:50:59.777Z,63.63
2022-12-19T08:53:28.871Z,59.13
2022-12-19T08:55:56.913Z,63.90
2022-12-19T08:58:24.548Z,70.80
2022-12-19T09:00:57.672Z,69.73
2022-12-19T09:03:29.686Z,70.10
2022-12-19T09:06:18.696Z,79.77
2022-12-19T09:08:46.006Z,67.43
2022-12-19T09:11:17.734Z,72.97
2022-12-19T09:13:45.056Z,64.37
2022-12-19T09:16:13.301Z,68.17
2022-12-19T09:18:46.602Z,64.10
2022-12-19T09:21:15.459Z,68.43
2022-12-19T09:23:42.770Z,58.30
2022-12-19T09:26:12.828Z,65.50
2022-12-19T09:28:41.469Z,60.10
2022-12-19T09:31:12.406Z,60.00
2022-12-19T09:33:43.424Z,58.77
2022-12-19T09:36:23.241Z,52.70
2022-12-19T09:38:50.970Z,57.63
2022-12-19T09:41:46.183Z,53.40
2022-12-19T09:44:45.971Z,54.03
2022-12-19T09:47:17.904Z,55.10
2022-12-19T09:49:47.479Z,53.73
2022-12-19T09:52:19.203Z,53.40
2022-12-19T09:55:03.811Z,48.60
2022-12-19T09:57:47.203Z,51.30
2022-12-19T10:00:22.501Z,53.40
2022-12-19T10:03:05.549Z,46.77
2022-12-19T10:07:07.916Z,48.63
2022-12-19T10:10:00.972Z,43.13
2022-12-19T10:12:42.399Z,44.43
2022-12-19T10:15:20.221Z,38.70
2022-12-19T10:18:24.589Z,38.87
2022-12-19T10:21:08.997Z,41.93
2022-12-19T10:24:24.052Z,38.30
2022-12-19T10:26:53.707Z,38.53
2022-12-19T10:29:38.987Z,40.00
2022-12-19T10:32:25.329Z,41.93
2022-12-19T10:34:53.775Z,39.13
2022-12-19T10:37:47.351Z,33.67
2022-12-19T10:40:27.943Z,30.33
2022-12-19T10:43:25.878Z,34.27
2022-12-19T10:46:02.728Z,47.03
2022-12-19T10:48:31.425Z,38.20
2022-12-19T10:50:58.549Z,36.00
2022-12-19T10:53:32.256Z,60.87
2022-12-19T10:56:12.522Z,44.53
2022-12-19T10:58:44.283Z,32.73
2022-12-19T11:01:16.914Z,79.43
2022-12-19T11:03:48.094Z,35.43
2022-12-19T11:06:48.161Z,25.73
2022-12-19T11:09:25.564Z,26.67
2022-12-19T11:14:23.872Z,31.13
2022-12-19T11:20:18.990Z,26.17
2022-12-19T11:29:17.027Z,28.27
2022-12-19T11:29:27.193Z,24.13
2022-12-19T11:30:43.089Z,22.80
2022-12-19T11:30:47.825Z,29.00
2022-12-19T11:32:45.099Z,23.40
2022-12-19T11:35:36.820Z,27.83
2022-12-19T11:38:06.158Z,30.23
2022-12-19T11:40:53.296Z,29.40
2022-12-19T11:43:45.751Z,77.60
2022-12-19T11:46:40.641Z,17.57
2022-12-19T11:49:19.060Z,22.70
2022-12-19T11:52:03.176Z,26.70
2022-12-19T11:54:56.268Z,22.63
2022-12-19T11:57:23.864Z,56.20
2022-12-19T11:59:54.002Z,20.87
2022-12-19T12:02:36.008Z,20.47
2022-12-19T12:05:08.195Z,22.77
2022-12-19T12:08:32.132Z,21.60
2022-12-19T12:13:48.589Z,23.43
2022-12-19T12:23:19.134Z,21.53
2022-12-19T12:31:00.356Z,20.08
2022-12-19T12:31:11.703Z,21.20
2022-12-19T12:31:18.626Z,25.27
2022-12-19T12:31:57.585Z,24.57
2022-12-19T12:32:05.261Z,23.50
2022-12-19T12:35:51.346Z,21.93
2022-12-19T12:40:50.820Z,29.02
2022-12-19T12:43:39.050Z,25.20
2022-12-19T12:46:17.677Z,23.77
2022-12-19T12:48:55.532Z,20.88
2022-12-19T12:51:24.935Z,24.33
2022-12-19T12:54:03.270Z,24.15
2022-12-19T12:56:30.381Z,24.92
2022-12-19T12:58:56.849Z,19.30
2022-12-19T13:01:29.705Z,21.27
2022-12-19T13:04:02.705Z,19.83
2022-12-19T13:06:36.427Z,24.63
2022-12-19T13:09:08.952Z,21.07
2022-12-19T13:11:57.202Z,18.13
2022-12-19T13:14:35.926Z,21.15
2022-12-19T13:17:10.944Z,17.60
2022-12-19T13:19:51.874Z,20.87
2022-12-19T13:22:37.733Z,18.27
2022-12-19T13:25:27.221Z,19.93
2022-12-19T13:28:04.170Z,18.38
2022-12-19T13:30:46.242Z,17.70
2022-12-19T13:33:21.002Z,16.27
2022-12-19T13:39:44.906Z,16.90
2022-12-19T13:40:00.504Z,15.77
2022-12-19T13:42:00.893Z,21.20
2022-12-19T13:44:28.276Z,21.63
2022-12-19T13:46:56.004Z,18.53
2022-12-19T13:49:35.644Z,23.93
2022-12-19T13:52:03.926Z,22.87
2022-12-19T13:54:34.862Z,20.23
2022-12-19T13:57:06.345Z,19.77
2022-12-19T13:59:39.921Z,16.43
2022-12-19T14:02:16.016Z,16.57
2022-12-19T14:04:44.764Z,18.87
2022-12-19T14:07:42.179Z,12.47
2022-12-19T14:11:44.278Z,16.03
2022-12-19T14:13:49.045Z,14.57
2022-12-19T14:16:44.079Z,14.90
2022-12-19T14:19:28.981Z,10.88
2022-12-19T14:22:15.910Z,12.67
2022-12-19T14:28:14.431Z,12.00
2022-12-19T14:28:17.073Z,10.30
2022-12-19T14:30:57.787Z,9.80
2022-12-19T14:33:45.774Z,9.53
2022-12-19T14:36:25.712Z,14.77
2022-12-19T14:39:22.830Z,8.93
2022-12-19T14:42:04.644Z,10.93
2022-12-19T14:52:51.730Z,10.18
2022-12-19T14:53:52.336Z,9.65
2022-12-19T15:02:10.511Z,9.05
2022-12-19T15:04:50.919Z,8.40
2022-12-19T15:07:27.330Z,8.75
2022-12-19T15:11:06.813Z,6.45
2022-12-19T15:14:49.362Z,8.75
2022-12-19T15:16:07.419Z,7.68
2022-12-19T15:18:34.339Z,9.20
2022-12-19T15:21:08.047Z,8.65
2022-12-19T15:23:34.739Z,7.88
2022-12-19T15:26:06.483Z,8.77
2022-12-19T15:28:51.897Z,8.57
2022-12-19T15:31:29.946Z,6.47
2022-12-19T15:36:43.629Z,9.02
2022-12-19T15:39:10.178Z,8.45
2022-12-19T15:41:36.920Z,10.48
2022-12-19T15:44:16.077Z,7.97
2022-12-19T15:46:48.413Z,8.27
2022-12-19T15:49:20.788Z,9.27
2022-12-19T15:51:48.264Z,7.93
2022-12-19T15:54:47.083Z,8.13
2022-12-19T15:57:01.687Z,10.30
2022-12-19T15:59:37.553Z,10.48
2022-12-19T16:02:15.880Z,10.98
2022-12-19T16:04:42.946Z,10.15
2022-12-19T16:07:25.725Z,11.88
2022-12-19T16:09:52.513Z,12.77
2022-12-19T16:12:23.889Z,11.90
2022-12-19T16:14:58.051Z,12.85
2022-12-19T16:17:27.131Z,12.75
2022-12-19T16:19:53.950Z,12.43
2022-12-19T16:22:23.585Z,12.70
2022-12-19T16:24:52.070Z,13.07
2022-12-19T16:27:28.519Z,14.50
2022-12-19T16:29:56.655Z,11.82
2022-12-19T16:32:26.508Z,12.97
2022-12-19T16:34:53.529Z,12.03
2022-12-19T16:37:20.454Z,12.70
2022-12-19T16:39:47.129Z,16.47
2022-12-19T16:42:15.959Z,11.90
2022-12-19T16:44:45.435Z,12.20
2022-12-19T16:47:17.790Z,12.73
2022-12-19T16:49:45.228Z,12.80
2022-12-19T16:52:12.048Z,11.60
2022-12-19T16:54:38.946Z,10.63
2022-12-19T16:57:14.064Z,9.77
2022-12-19T16:59:40.745Z,10.85
2022-12-19T17:02:39.895Z,10.60
2022-12-19T17:05:08.319Z,11.07
2022-12-19T17:07:35.201Z,8.55
2022-12-19T17:10:01.799Z,9.85
2022-12-19T17:12:28.815Z,10.25
2022-12-19T17:14:55.399Z,8.77
2022-12-19T17:17:22.000Z,10.50
2022-12-19T17:19:48.601Z,8.48
2022-12-19T17:22:17.217Z,11.50
2022-12-19T17:24:46.621Z,8.32
2022-12-19T17:27:13.367Z,9.98
2022-12-19T17:29:40.185Z,7.07
2022-12-19T17:32:09.081Z,8.82
2022-12-19T17:34:36.152Z,8.60
2022-12-19T17:37:05.153Z,5.88
2022-12-19T17:39:34.449Z,5.93
2022-12-19T17:42:11.321Z,8.02
2022-12-19T17:44:38.140Z,5.35
2022-12-19T17:47:04.709Z,6.88
2022-12-19T17:49:32.866Z,6.20
2022-12-19T17:51:59.991Z,8.25
2022-12-19T17:54:27.269Z,5.25
2022-12-19T17:56:54.425Z,11.90
2022-12-19T17:59:21.125Z,5.80
2022-12-19T18:01:47.850Z,6.20
2022-12-19T18:04:18.427Z,8.23
2022-12-19T18:06:45.790Z,7.28
2022-12-19T18:09:23.424Z,4.18
2022-12-19T18:11:52.560Z,5.15
2022-12-19T18:14:19.433Z,5.55
2022-12-19T18:16:49.582Z,5.18
2022-12-19T18:19:19.747Z,5.75
2022-12-19T18:21:46.440Z,8.07
2022-12-19T18:24:16.370Z,8.18
2022-12-19T18:26:44.404Z,5.10
2022-12-19T18:29:11.433Z,6.93
2022-12-19T18:31:40.614Z,6.28
2022-12-19T18:34:19.527Z,5.55
2022-12-19T18:36:46.316Z,10.43
2022-12-19T18:39:28.086Z,9.85
2022-12-19T18:41:55.116Z,7.93
2022-12-19T18:44:24.636Z,7.93
2022-12-19T18:46:52.024Z,6.78
2022-12-19T18:49:19.144Z,9.35
2022-12-19T18:51:45.779Z,7.93
2022-12-19T18:54:17.541Z,5.25
2022-12-19T18:56:44.673Z,7.45
2022-12-19T18:59:11.227Z,6.00
2022-12-19T19:01:46.716Z,9.15
2022-12-19T19:04:17.775Z,6.70
2022-12-19T19:06:50.823Z,8.25
2022-12-19T19:09:20.326Z,7.05
2022-12-19T19:11:47.067Z,6.93
2022-12-19T19:14:13.805Z,7.55
2022-12-19T19:16:40.590Z,5.85
2022-12-19T19:19:10.792Z,6.90
2022-12-19T19:21:38.702Z,7.03
2022-12-19T19:24:15.167Z,6.68
2022-12-19T19:26:42.030Z,5.95
2022-12-19T19:29:10.010Z,5.95
2022-12-19T19:31:40.872Z,5.25
2022-12-19T19:34:16.878Z,4.40
2022-12-19T19:36:47.376Z,4.00
2022-12-19T19:39:14.079Z,6.95
2022-12-19T19:41:40.752Z,5.38
2022-12-19T19:44:07.501Z,4.57
2022-12-19T19:46:34.266Z,4.20
2022-12-19T19:49:00.835Z,6.97
2022-12-19T19:51:29.058Z,4.50
2022-12-19T19:53:55.926Z,6.80
2022-12-19T19:56:22.624Z,5.53
2022-12-19T19:58:49.195Z,4.72
2022-12-19T20:01:15.883Z,3.55
2022-12-19T20:03:44.627Z,4.28
2022-12-19T20:06:12.104Z,4.28
2022-12-19T20:08:39.966Z,4.05
2022-12-19T20:11:08.976Z,3.90
2022-12-19T20:13:35.886Z,5.88
2022-12-19T20:16:11.198Z,4.32
2022-12-19T20:18:40.556Z,3.38
2022-12-19T20:21:12.744Z,4.30
2022-12-19T20:23:40.550Z,3.70
2022-12-19T20:26:07.498Z,3.45
2022-12-19T20:28:34.881Z,4.10
2022-12-19T20:31:01.765Z,4.93
2022-12-19T20:33:28.371Z,3.50
2022-12-19T20:36:12.336Z,4.45
2022-12-19T20:38:38.972Z,5.00
2022-12-19T20:41:05.641Z,4.55
2022-12-19T20:43:32.653Z,4.40
2022-12-19T20:46:05.363Z,6.28
2022-12-19T20:48:32.537Z,5.88
2022-12-19T20:51:00.230Z,7.43
2022-12-19T20:53:27.414Z,6.47
2022-12-19T20:55:58.181Z,6.60
2022-12-19T20:58:26.667Z,6.75
2022-12-19T21:01:17.723Z,5.15
2022-12-19T21:03:45.303Z,7.72
2022-12-19T21:06:15.653Z,6.45
2022-12-19T21:08:42.597Z,6.50
2022-12-19T21:11:09.830Z,6.30
2022-12-19T21:13:38.055Z,9.48
2022-12-19T21:16:09.913Z,7.15
2022-12-19T21:18:39.060Z,6.07
2022-12-19T21:21:07.243Z,5.65
2022-12-19T21:23:34.072Z,7.55
2022-12-19T21:26:02.968Z,4.65
2022-12-19T21:28:29.749Z,8.23
2022-12-19T21:30:58.982Z,5.97
2022-12-19T21:33:26.561Z,5.63
2022-12-19T21:35:53.311Z,5.72
2022-12-19T21:38:19.969Z,5.65
2022-12-19T21:40:46.603Z,7.40
2022-12-19T21:43:13.248Z,4.90
2022-12-19T21:45:40.408Z,9.38
2022-12-19T21:48:07.078Z,8.73
2022-12-19T21:50:34.023Z,8.73
2022-12-19T21:53:01.121Z,7.53
2022-12-19T21:55:27.720Z,7.60
2022-12-19T21:57:54.300Z,5.70
2022-12-19T22:00:21.023Z,7.72
2022-12-19T22:03:12.217Z,5.53
2022-12-19T22:05:35.149Z,9.55
2022-12-19T22:08:01.736Z,6.15
2022-12-19T22:10:28.282Z,6.10
2022-12-19T22:12:54.808Z,9.95
2022-12-19T22:15:21.365Z,7.05
2022-12-19T22:17:47.958Z,7.60
2022-12-19T22:20:14.704Z,7.18
2022-12-19T22:22:41.345Z,8.30
2022-12-19T22:25:08.238Z,8.63
2022-12-19T22:27:34.989Z,8.73
2022-12-19T22:30:08.508Z,8.00
2022-12-19T22:32:37.022Z,9.77
2022-12-19T22:35:04.289Z,8.57
2022-12-19T22:37:30.869Z,7.32
2022-12-19T22:40:00.185Z,8.95
2022-12-19T22:42:27.938Z,10.48
2022-12-19T22:44:54.474Z,12.05
2022-12-19T22:47:21.052Z,9.00
2022-12-19T22:49:52.099Z,11.02
2022-12-19T22:52:18.868Z,9.32
2022-12-19T22:54:45.428Z,8.45
2022-12-19T22:57:12.323Z,8.45
2022-12-19T22:59:38.858Z,10.80
2022-12-19T23:02:05.617Z,10.00
2022-12-19T23:04:32.292Z,12.07
2022-12-19T23:06:58.870Z,13.05
2022-12-19T23:09:25.407Z,9.35
2022-12-19T23:11:52.185Z,12.30
2022-12-19T23:14:19.831Z,9.38
2022-12-19T23:16:46.840Z,9.52
2022-12-19T23:19:15.605Z,10.88
2022-12-19T23:21:42.177Z,9.15
2022-12-19T23:24:08.836Z,11.30
2022-12-19T23:26:37.424Z,10.85
2022-12-19T23:29:10.045Z,12.25
2022-12-19T23:31:39.470Z,13.25
2022-12-19T23:34:06.272Z,13.32
2022-12-19T23:37:09.017Z,12.98
2022-12-19T23:39:19.563Z,12.63
2022-12-19T23:41:46.164Z,13.10
2022-12-19T23:44:12.839Z,14.45
2022-12-19T23:46:40.200Z,13.75
2022-12-19T23:49:06.855Z,16.38
2022-12-19T23:51:33.914Z,14.07
2022-12-19T23:54:00.458Z,13.75
2022-12-19T23:56:30.279Z,17.13
2022-12-19T23:58:57.418Z,14.32
